sensor_id;sensor_type;location;lat;lon;timestamp;P1;durP1;ratioP1;P2;durP2;ratioP2
20365;SDS011;10341;49.894;8.822;2024-02-26T00:02:55;1.77;;;1.10;;
20365;SDS011;10341;49.894;8.822;2024-02-26T00:08:15;1.80;;;1.35;;
20365;SDS011;10341;49.894;8.822;2024-02-26T00:13:35;2.38;;;1.52;;
20365;SDS011;10341;49.894;8.822;2024-02-26T00:18:55;3.80;;;1.65;;
20365;SDS011;10341;49.894;8.822;2024-02-26T00:24:13;1.77;;;1.47;;
20365;SDS011;10341;49.894;8.822;2024-02-26T00:29:33;3.93;;;1.67;;
20365;SDS011;10341;49.894;8.822;2024-02-26T00:34:52;2.65;;;1.55;;
20365;SDS011;10341;49.894;8.822;2024-02-26T00:40:11;2.17;;;1.40;;
20365;SDS011;10341;49.894;8.822;2024-02-26T00:45:31;3.35;;;1.40;;
20365;SDS011;10341;49.894;8.822;2024-02-26T00:50:51;2.28;;;1.60;;
20365;SDS011;10341;49.894;8.822;2024-02-26T00:56:10;1.93;;;1.40;;
20365;SDS011;10341;49.894;8.822;2024-02-26T01:01:29;2.67;;;1.60;;
20365;SDS011;10341;49.894;8.822;2024-02-26T01:06:49;4.40;;;1.57;;
20365;SDS011;10341;49.894;8.822;2024-02-26T01:17:27;2.03;;;1.52;;
20365;SDS011;10341;49.894;8.822;2024-02-26T01:22:47;2.08;;;1.50;;
20365;SDS011;10341;49.894;8.822;2024-02-26T01:28:07;1.73;;;1.55;;
20365;SDS011;10341;49.894;8.822;2024-02-26T01:33:26;2.72;;;1.55;;
20365;SDS011;10341;49.894;8.822;2024-02-26T01:38:46;2.30;;;1.67;;
20365;SDS011;10341;49.894;8.822;2024-02-26T01:49:25;2.25;;;1.58;;
20365;SDS011;10341;49.894;8.822;2024-02-26T02:00:05;2.50;;;1.50;;
20365;SDS011;10341;49.894;8.822;2024-02-26T02:05:27;2.40;;;1.70;;
20365;SDS011;10341;49.894;8.822;2024-02-26T02:10:48;4.68;;;1.90;;
20365;SDS011;10341;49.894;8.822;2024-02-26T02:16:08;3.50;;;1.58;;
20365;SDS011;10341;49.894;8.822;2024-02-26T02:21:27;2.10;;;1.70;;
20365;SDS011;10341;49.894;8.822;2024-02-26T02:26:46;3.90;;;1.57;;
20365;SDS011;10341;49.894;8.822;2024-02-26T02:32:05;2.88;;;1.80;;
20365;SDS011;10341;49.894;8.822;2024-02-26T02:37:25;2.40;;;1.80;;
20365;SDS011;10341;49.894;8.822;2024-02-26T02:42:44;3.45;;;2.10;;
20365;SDS011;10341;49.894;8.822;2024-02-26T02:48:04;2.55;;;1.75;;
20365;SDS011;10341;49.894;8.822;2024-02-26T02:53:24;3.70;;;1.90;;
20365;SDS011;10341;49.894;8.822;2024-02-26T02:58:44;4.00;;;1.80;;
20365;SDS011;10341;49.894;8.822;2024-02-26T03:04:03;2.97;;;1.80;;
20365;SDS011;10341;49.894;8.822;2024-02-26T03:09:22;4.25;;;1.73;;
20365;SDS011;10341;49.894;8.822;2024-02-26T03:14:42;3.38;;;2.08;;
20365;SDS011;10341;49.894;8.822;2024-02-26T03:20:02;3.20;;;1.98;;
20365;SDS011;10341;49.894;8.822;2024-02-26T03:25:24;4.20;;;2.00;;
20365;SDS011;10341;49.894;8.822;2024-02-26T03:30:43;2.90;;;1.77;;
20365;SDS011;10341;49.894;8.822;2024-02-26T03:36:03;3.13;;;1.77;;
20365;SDS011;10341;49.894;8.822;2024-02-26T03:41:22;2.50;;;1.92;;
20365;SDS011;10341;49.894;8.822;2024-02-26T03:46:42;3.67;;;1.65;;
20365;SDS011;10341;49.894;8.822;2024-02-26T03:57:21;2.42;;;1.60;;
20365;SDS011;10341;49.894;8.822;2024-02-26T04:02:40;2.78;;;1.55;;
20365;SDS011;10341;49.894;8.822;2024-02-26T04:07:59;2.80;;;1.90;;
20365;SDS011;10341;49.894;8.822;2024-02-26T04:13:19;3.58;;;2.10;;
20365;SDS011;10341;49.894;8.822;2024-02-26T04:18:38;3.33;;;2.27;;
20365;SDS011;10341;49.894;8.822;2024-02-26T04:23:58;3.88;;;2.38;;
20365;SDS011;10341;49.894;8.822;2024-02-26T04:29:20;6.38;;;2.92;;
20365;SDS011;10341;49.894;8.822;2024-02-26T04:34:39;4.30;;;3.00;;
20365;SDS011;10341;49.894;8.822;2024-02-26T04:40:01;4.78;;;3.03;;
20365;SDS011;10341;49.894;8.822;2024-02-26T04:45:21;4.93;;;2.97;;
20365;SDS011;10341;49.894;8.822;2024-02-26T04:50:40;5.60;;;3.63;;
20365;SDS011;10341;49.894;8.822;2024-02-26T04:56:00;4.90;;;3.17;;
20365;SDS011;10341;49.894;8.822;2024-02-26T05:01:19;4.90;;;3.30;;
20365;SDS011;10341;49.894;8.822;2024-02-26T05:06:39;6.72;;;3.75;;
20365;SDS011;10341;49.894;8.822;2024-02-26T05:11:58;5.57;;;3.63;;
20365;SDS011;10341;49.894;8.822;2024-02-26T05:17:17;5.60;;;3.45;;
20365;SDS011;10341;49.894;8.822;2024-02-26T05:22:36;6.33;;;3.67;;
20365;SDS011;10341;49.894;8.822;2024-02-26T05:27:55;6.63;;;3.77;;
20365;SDS011;10341;49.894;8.822;2024-02-26T05:33:14;6.90;;;3.80;;
20365;SDS011;10341;49.894;8.822;2024-02-26T05:38:33;6.93;;;3.83;;
20365;SDS011;10341;49.894;8.822;2024-02-26T05:43:54;5.68;;;3.42;;
20365;SDS011;10341;49.894;8.822;2024-02-26T05:49:13;5.88;;;3.50;;
20365;SDS011;10341;49.894;8.822;2024-02-26T05:59:52;4.80;;;3.40;;
20365;SDS011;10341;49.894;8.822;2024-02-26T06:05:12;5.55;;;3.20;;
20365;SDS011;10341;49.894;8.822;2024-02-26T06:10:31;4.60;;;3.45;;
20365;SDS011;10341;49.894;8.822;2024-02-26T06:15:51;8.63;;;5.18;;
20365;SDS011;10341;49.894;8.822;2024-02-26T06:21:10;5.10;;;3.58;;
20365;SDS011;10341;49.894;8.822;2024-02-26T06:26:30;8.47;;;4.10;;
20365;SDS011;10341;49.894;8.822;2024-02-26T06:31:49;5.00;;;3.58;;
20365;SDS011;10341;49.894;8.822;2024-02-26T06:37:09;7.82;;;3.88;;
20365;SDS011;10341;49.894;8.822;2024-02-26T06:42:29;7.43;;;3.80;;
20365;SDS011;10341;49.894;8.822;2024-02-26T06:47:49;6.22;;;4.05;;
20365;SDS011;10341;49.894;8.822;2024-02-26T06:58:28;8.80;;;4.75;;
20365;SDS011;10341;49.894;8.822;2024-02-26T07:03:47;8.60;;;4.43;;
20365;SDS011;10341;49.894;8.822;2024-02-26T07:09:06;7.87;;;4.63;;
20365;SDS011;10341;49.894;8.822;2024-02-26T07:14:25;8.60;;;4.68;;
20365;SDS011;10341;49.894;8.822;2024-02-26T07:19:45;6.97;;;4.65;;
20365;SDS011;10341;49.894;8.822;2024-02-26T07:25:05;7.68;;;4.35;;
20365;SDS011;10341;49.894;8.822;2024-02-26T07:30:26;8.90;;;4.90;;
20365;SDS011;10341;49.894;8.822;2024-02-26T07:35:45;8.17;;;4.53;;
20365;SDS011;10341;49.894;8.822;2024-02-26T07:41:05;9.25;;;4.45;;
20365;SDS011;10341;49.894;8.822;2024-02-26T07:46:24;6.68;;;4.10;;
20365;SDS011;10341;49.894;8.822;2024-02-26T07:51:44;7.30;;;4.55;;
20365;SDS011;10341;49.894;8.822;2024-02-26T07:57:03;7.00;;;4.10;;
20365;SDS011;10341;49.894;8.822;2024-02-26T08:02:24;7.03;;;4.50;;
20365;SDS011;10341;49.894;8.822;2024-02-26T08:07:43;7.18;;;4.47;;
20365;SDS011;10341;49.894;8.822;2024-02-26T08:13:03;6.40;;;4.35;;
20365;SDS011;10341;49.894;8.822;2024-02-26T08:18:25;7.80;;;4.72;;
20365;SDS011;10341;49.894;8.822;2024-02-26T08:23:44;7.35;;;4.53;;
20365;SDS011;10341;49.894;8.822;2024-02-26T08:29:04;6.15;;;4.50;;
20365;SDS011;10341;49.894;8.822;2024-02-26T08:34:24;8.68;;;4.43;;
20365;SDS011;10341;49.894;8.822;2024-02-26T08:39:43;9.45;;;4.65;;
20365;SDS011;10341;49.894;8.822;2024-02-26T08:45:05;6.93;;;4.25;;
20365;SDS011;10341;49.894;8.822;2024-02-26T08:50:25;7.70;;;4.53;;
20365;SDS011;10341;49.894;8.822;2024-02-26T08:55:45;9.93;;;4.68;;
20365;SDS011;10341;49.894;8.822;2024-02-26T09:01:05;6.55;;;4.32;;
20365;SDS011;10341;49.894;8.822;2024-02-26T09:06:24;7.10;;;4.53;;
20365;SDS011;10341;49.894;8.822;2024-02-26T09:11:43;5.90;;;4.10;;
20365;SDS011;10341;49.894;8.822;2024-02-26T09:17:03;6.80;;;4.20;;
20365;SDS011;10341;49.894;8.822;2024-02-26T09:22:22;5.10;;;3.63;;
20365;SDS011;10341;49.894;8.822;2024-02-26T09:27:42;6.10;;;3.77;;
20365;SDS011;10341;49.894;8.822;2024-02-26T09:33:05;7.20;;;4.50;;
20365;SDS011;10341;49.894;8.822;2024-02-26T09:38:24;7.53;;;4.10;;
20365;SDS011;10341;49.894;8.822;2024-02-26T09:43:44;6.53;;;4.20;;
20365;SDS011;10341;49.894;8.822;2024-02-26T09:49:05;7.55;;;4.50;;
20365;SDS011;10341;49.894;8.822;2024-02-26T09:54:27;7.72;;;4.13;;
20365;SDS011;10341;49.894;8.822;2024-02-26T09:59:48;5.00;;;3.60;;
20365;SDS011;10341;49.894;8.822;2024-02-26T10:05:10;8.23;;;4.25;;
20365;SDS011;10341;49.894;8.822;2024-02-26T10:10:31;6.97;;;4.05;;
20365;SDS011;10341;49.894;8.822;2024-02-26T10:15:52;6.40;;;4.18;;
20365;SDS011;10341;49.894;8.822;2024-02-26T10:21:11;6.50;;;3.95;;
20365;SDS011;10341;49.894;8.822;2024-02-26T10:26:30;5.60;;;3.45;;
20365;SDS011;10341;49.894;8.822;2024-02-26T10:31:51;5.85;;;3.65;;
20365;SDS011;10341;49.894;8.822;2024-02-26T10:37:11;4.97;;;3.55;;
20365;SDS011;10341;49.894;8.822;2024-02-26T10:42:31;4.88;;;3.63;;
20365;SDS011;10341;49.894;8.822;2024-02-26T10:47:51;4.93;;;3.17;;
20365;SDS011;10341;49.894;8.822;2024-02-26T10:53:17;5.25;;;3.17;;
20365;SDS011;10341;49.894;8.822;2024-02-26T10:58:39;5.60;;;3.38;;
20365;SDS011;10341;49.894;8.822;2024-02-26T11:03:59;5.07;;;3.10;;
20365;SDS011;10341;49.894;8.822;2024-02-26T11:09:20;5.45;;;3.50;;
20365;SDS011;10341;49.894;8.822;2024-02-26T11:14:42;7.35;;;3.72;;
20365;SDS011;10341;49.894;8.822;2024-02-26T11:20:04;6.22;;;3.83;;
20365;SDS011;10341;49.894;8.822;2024-02-26T11:25:28;5.60;;;3.40;;
20365;SDS011;10341;49.894;8.822;2024-02-26T11:30:48;6.15;;;3.60;;
20365;SDS011;10341;49.894;8.822;2024-02-26T11:36:09;4.32;;;3.28;;
20365;SDS011;10341;49.894;8.822;2024-02-26T11:41:30;5.35;;;3.60;;
20365;SDS011;10341;49.894;8.822;2024-02-26T11:46:51;6.25;;;4.18;;
20365;SDS011;10341;49.894;8.822;2024-02-26T11:52:11;5.32;;;3.17;;
20365;SDS011;10341;49.894;8.822;2024-02-26T11:57:38;4.68;;;3.28;;
20365;SDS011;10341;49.894;8.822;2024-02-26T12:02:59;5.25;;;3.55;;
20365;SDS011;10341;49.894;8.822;2024-02-26T12:08:20;5.25;;;3.40;;
20365;SDS011;10341;49.894;8.822;2024-02-26T12:13:42;4.07;;;3.10;;
20365;SDS011;10341;49.894;8.822;2024-02-26T12:19:06;7.05;;;4.07;;
20365;SDS011;10341;49.894;8.822;2024-02-26T12:24:27;5.43;;;3.80;;
20365;SDS011;10341;49.894;8.822;2024-02-26T12:29:46;6.45;;;3.65;;
20365;SDS011;10341;49.894;8.822;2024-02-26T12:35:06;6.63;;;4.10;;
20365;SDS011;10341;49.894;8.822;2024-02-26T12:40:26;7.15;;;4.03;;
20365;SDS011;10341;49.894;8.822;2024-02-26T12:45:45;8.65;;;3.95;;
20365;SDS011;10341;49.894;8.822;2024-02-26T12:51:06;6.78;;;3.97;;
20365;SDS011;10341;49.894;8.822;2024-02-26T12:56:27;6.50;;;3.65;;
20365;SDS011;10341;49.894;8.822;2024-02-26T13:01:47;6.18;;;3.95;;
20365;SDS011;10341;49.894;8.822;2024-02-26T13:07:07;5.70;;;3.75;;
20365;SDS011;10341;49.894;8.822;2024-02-26T13:12:26;7.07;;;3.90;;
20365;SDS011;10341;49.894;8.822;2024-02-26T13:17:46;6.40;;;4.20;;
20365;SDS011;10341;49.894;8.822;2024-02-26T13:23:07;6.20;;;3.90;;
20365;SDS011;10341;49.894;8.822;2024-02-26T13:28:29;5.65;;;3.72;;
20365;SDS011;10341;49.894;8.822;2024-02-26T13:33:48;5.50;;;3.65;;
20365;SDS011;10341;49.894;8.822;2024-02-26T13:39:08;5.95;;;3.72;;
20365;SDS011;10341;49.894;8.822;2024-02-26T13:44:32;6.43;;;3.80;;
20365;SDS011;10341;49.894;8.822;2024-02-26T13:49:53;6.70;;;4.13;;
20365;SDS011;10341;49.894;8.822;2024-02-26T13:55:12;6.07;;;4.03;;
20365;SDS011;10341;49.894;8.822;2024-02-26T14:00:34;5.28;;;3.97;;
20365;SDS011;10341;49.894;8.822;2024-02-26T14:05:54;7.20;;;4.18;;
20365;SDS011;10341;49.894;8.822;2024-02-26T14:11:15;5.85;;;3.95;;
20365;SDS011;10341;49.894;8.822;2024-02-26T14:16:34;6.90;;;3.60;;
20365;SDS011;10341;49.894;8.822;2024-02-26T14:27:14;5.05;;;3.35;;
20365;SDS011;10341;49.894;8.822;2024-02-26T14:32:34;5.22;;;3.30;;
20365;SDS011;10341;49.894;8.822;2024-02-26T14:37:55;5.40;;;3.55;;
20365;SDS011;10341;49.894;8.822;2024-02-26T14:43:19;5.38;;;3.20;;
20365;SDS011;10341;49.894;8.822;2024-02-26T14:48:39;5.30;;;3.50;;
20365;SDS011;10341;49.894;8.822;2024-02-26T14:53:58;4.47;;;3.05;;
20365;SDS011;10341;49.894;8.822;2024-02-26T14:59:19;4.90;;;3.22;;
20365;SDS011;10341;49.894;8.822;2024-02-26T15:04:38;7.37;;;3.60;;
20365;SDS011;10341;49.894;8.822;2024-02-26T15:09:58;5.82;;;3.60;;
20365;SDS011;10341;49.894;8.822;2024-02-26T15:15:20;5.72;;;3.78;;
20365;SDS011;10341;49.894;8.822;2024-02-26T15:20:40;4.07;;;2.88;;
20365;SDS011;10341;49.894;8.822;2024-02-26T15:26:01;5.47;;;3.30;;
20365;SDS011;10341;49.894;8.822;2024-02-26T15:31:20;5.25;;;3.45;;
20365;SDS011;10341;49.894;8.822;2024-02-26T15:36:41;6.53;;;3.47;;
20365;SDS011;10341;49.894;8.822;2024-02-26T15:42:00;4.75;;;3.50;;
20365;SDS011;10341;49.894;8.822;2024-02-26T15:47:21;5.03;;;3.33;;
20365;SDS011;10341;49.894;8.822;2024-02-26T15:52:40;6.67;;;3.80;;
20365;SDS011;10341;49.894;8.822;2024-02-26T15:57:59;7.28;;;3.72;;
20365;SDS011;10341;49.894;8.822;2024-02-26T16:03:19;7.50;;;3.70;;
20365;SDS011;10341;49.894;8.822;2024-02-26T16:08:38;6.25;;;3.63;;
20365;SDS011;10341;49.894;8.822;2024-02-26T16:20:00;5.05;;;3.22;;
20365;SDS011;10341;49.894;8.822;2024-02-26T16:25:22;5.00;;;2.75;;
20365;SDS011;10341;49.894;8.822;2024-02-26T16:30:42;4.82;;;2.70;;
20365;SDS011;10341;49.894;8.822;2024-02-26T16:36:02;4.75;;;2.78;;
20365;SDS011;10341;49.894;8.822;2024-02-26T16:46:41;5.65;;;2.88;;
20365;SDS011;10341;49.894;8.822;2024-02-26T16:52:01;5.67;;;2.40;;
20365;SDS011;10341;49.894;8.822;2024-02-26T16:57:21;4.57;;;2.92;;
20365;SDS011;10341;49.894;8.822;2024-02-26T17:02:40;5.05;;;3.17;;
20365;SDS011;10341;49.894;8.822;2024-02-26T17:08:00;4.22;;;3.42;;
20365;SDS011;10341;49.894;8.822;2024-02-26T17:13:19;4.53;;;3.13;;
20365;SDS011;10341;49.894;8.822;2024-02-26T17:18:41;3.88;;;2.88;;
20365;SDS011;10341;49.894;8.822;2024-02-26T17:24:00;3.13;;;2.50;;
20365;SDS011;10341;49.894;8.822;2024-02-26T17:29:20;3.13;;;2.40;;
20365;SDS011;10341;49.894;8.822;2024-02-26T17:34:39;3.80;;;2.70;;
20365;SDS011;10341;49.894;8.822;2024-02-26T17:40:00;3.53;;;2.38;;
20365;SDS011;10341;49.894;8.822;2024-02-26T17:45:20;6.28;;;3.40;;
20365;SDS011;10341;49.894;8.822;2024-02-26T17:50:44;5.47;;;3.58;;
20365;SDS011;10341;49.894;8.822;2024-02-26T17:56:03;5.57;;;4.10;;
20365;SDS011;10341;49.894;8.822;2024-02-26T18:01:26;5.50;;;3.75;;
20365;SDS011;10341;49.894;8.822;2024-02-26T18:06:45;7.25;;;4.20;;
20365;SDS011;10341;49.894;8.822;2024-02-26T18:17:26;8.80;;;5.18;;
20365;SDS011;10341;49.894;8.822;2024-02-26T18:22:45;7.40;;;4.63;;
20365;SDS011;10341;49.894;8.822;2024-02-26T18:28:05;9.95;;;5.45;;
20365;SDS011;10341;49.894;8.822;2024-02-26T18:33:24;8.88;;;5.65;;
20365;SDS011;10341;49.894;8.822;2024-02-26T18:38:43;9.27;;;5.28;;
20365;SDS011;10341;49.894;8.822;2024-02-26T18:44:04;8.48;;;4.72;;
20365;SDS011;10341;49.894;8.822;2024-02-26T18:54:44;6.45;;;4.15;;
20365;SDS011;10341;49.894;8.822;2024-02-26T19:00:05;5.30;;;3.38;;
20365;SDS011;10341;49.894;8.822;2024-02-26T19:05:25;4.97;;;3.58;;
20365;SDS011;10341;49.894;8.822;2024-02-26T19:16:04;5.45;;;3.67;;
20365;SDS011;10341;49.894;8.822;2024-02-26T19:21:24;5.40;;;3.30;;
20365;SDS011;10341;49.894;8.822;2024-02-26T19:26:43;8.23;;;4.20;;
20365;SDS011;10341;49.894;8.822;2024-02-26T19:32:02;12.27;;;5.90;;
20365;SDS011;10341;49.894;8.822;2024-02-26T19:37:26;10.65;;;5.90;;
20365;SDS011;10341;49.894;8.822;2024-02-26T19:42:46;8.90;;;5.47;;
20365;SDS011;10341;49.894;8.822;2024-02-26T19:48:06;9.02;;;5.47;;
20365;SDS011;10341;49.894;8.822;2024-02-26T19:53:25;11.93;;;6.27;;
20365;SDS011;10341;49.894;8.822;2024-02-26T19:58:44;9.53;;;5.40;;
20365;SDS011;10341;49.894;8.822;2024-02-26T20:04:04;13.07;;;7.30;;
20365;SDS011;10341;49.894;8.822;2024-02-26T20:09:29;16.02;;;8.93;;
20365;SDS011;10341;49.894;8.822;2024-02-26T20:14:50;17.40;;;9.57;;
20365;SDS011;10341;49.894;8.822;2024-02-26T20:20:09;17.23;;;9.23;;
20365;SDS011;10341;49.894;8.822;2024-02-26T20:25:28;11.57;;;6.80;;
20365;SDS011;10341;49.894;8.822;2024-02-26T20:30:48;9.50;;;5.30;;
20365;SDS011;10341;49.894;8.822;2024-02-26T20:36:07;7.88;;;4.40;;
20365;SDS011;10341;49.894;8.822;2024-02-26T20:41:26;6.60;;;4.25;;
20365;SDS011;10341;49.894;8.822;2024-02-26T20:46:46;6.38;;;3.95;;
20365;SDS011;10341;49.894;8.822;2024-02-26T20:52:06;7.15;;;4.35;;
20365;SDS011;10341;49.894;8.822;2024-02-26T20:57:25;6.90;;;3.95;;
20365;SDS011;10341;49.894;8.822;2024-02-26T21:02:44;8.23;;;4.03;;
20365;SDS011;10341;49.894;8.822;2024-02-26T21:08:05;8.38;;;4.55;;
20365;SDS011;10341;49.894;8.822;2024-02-26T21:13:24;10.23;;;5.70;;
20365;SDS011;10341;49.894;8.822;2024-02-26T21:18:44;10.85;;;6.57;;
20365;SDS011;10341;49.894;8.822;2024-02-26T21:24:04;12.63;;;8.40;;
20365;SDS011;10341;49.894;8.822;2024-02-26T21:29:24;11.65;;;8.50;;
20365;SDS011;10341;49.894;8.822;2024-02-26T21:34:43;13.57;;;8.48;;
20365;SDS011;10341;49.894;8.822;2024-02-26T21:40:03;12.40;;;8.13;;
20365;SDS011;10341;49.894;8.822;2024-02-26T21:50:42;12.65;;;7.10;;
20365;SDS011;10341;49.894;8.822;2024-02-26T21:56:01;13.43;;;8.17;;
20365;SDS011;10341;49.894;8.822;2024-02-26T22:01:22;13.32;;;7.93;;
20365;SDS011;10341;49.894;8.822;2024-02-26T22:06:42;14.20;;;8.18;;
20365;SDS011;10341;49.894;8.822;2024-02-26T22:12:02;13.88;;;8.43;;
20365;SDS011;10341;49.894;8.822;2024-02-26T22:17:22;14.87;;;8.97;;
20365;SDS011;10341;49.894;8.822;2024-02-26T22:22:41;17.17;;;9.45;;
20365;SDS011;10341;49.894;8.822;2024-02-26T22:28:00;16.90;;;9.53;;
20365;SDS011;10341;49.894;8.822;2024-02-26T22:33:20;14.00;;;8.57;;
20365;SDS011;10341;49.894;8.822;2024-02-26T22:38:40;16.25;;;9.65;;
20365;SDS011;10341;49.894;8.822;2024-02-26T22:43:59;17.50;;;9.70;;
20365;SDS011;10341;49.894;8.822;2024-02-26T22:49:18;16.92;;;9.75;;
20365;SDS011;10341;49.894;8.822;2024-02-26T22:54:37;17.87;;;9.87;;
20365;SDS011;10341;49.894;8.822;2024-02-26T22:59:57;20.83;;;11.23;;
20365;SDS011;10341;49.894;8.822;2024-02-26T23:10:36;19.23;;;10.43;;
20365;SDS011;10341;49.894;8.822;2024-02-26T23:15:55;15.52;;;9.82;;
20365;SDS011;10341;49.894;8.822;2024-02-26T23:21:14;17.23;;;10.23;;
20365;SDS011;10341;49.894;8.822;2024-02-26T23:26:34;15.98;;;9.75;;
20365;SDS011;10341;49.894;8.822;2024-02-26T23:31:53;20.27;;;10.97;;
20365;SDS011;10341;49.894;8.822;2024-02-26T23:37:13;18.10;;;10.60;;
20365;SDS011;10341;49.894;8.822;2024-02-26T23:42:33;20.88;;;11.57;;
20365;SDS011;10341;49.894;8.822;2024-02-26T23:47:53;19.67;;;11.23;;
20365;SDS011;10341;49.894;8.822;2024-02-26T23:53:13;21.17;;;11.18;;
20365;SDS011;10341;49.894;8.822;2024-02-26T23:58:32;20.27;;;11.07;;
